aviador You're here:

YPGV Decoded Metar

GOVE AIRPORT in AUSTRALIA
Report Time2017-11-23 22:00:00
UTC Time2017-11-23 22:16:11
Flight Rules vfr VFR
Wind060° at 10 kt
W.Decomp.*RWY 13: 2.8 kt HW 9.6 kt LCW
W.Rank060° ranks 14
Current wind is above 060° avg. (7.9)
Visibility9999 m
Phenomena:N/A
Clouds:N/A
Expected CloudBase > 2,000 ft AGL from Temp-Dew spread
CeilingNone
Temp29°C (ISA +14)
Dew Point24°C (74% RH)
Heat Index33.5°C
QNH1009 hPa
Density Alt2,356 ft
Elevation180 ft
Report Wrong Elevation
Raw Report
YPGV 232200Z AUTO 06010KT 9999 // NCD 29/24 Q1009=

Extra information for YPGV:More info

Metar Taf Metar & Taf Last 4 Metars F.Rules Stats Wind Profile Meteogram Temp Stats Airport Information Weather charts Add Link Nearby VenuesMetar ALERT Operation Metar Decoded Social comments